RYR53Y LIMC-LOWW
Flight info
| Callsign | RYR53Y |
|---|---|
| Flight time | 1h 1m |
| Altitude | 34000 |
| Route | SRN6SXOSKOR6S/35R OSKOR DCT NESTI DCT ARALD/N0418F330 DCT ABTAN ABTAN2W |
| Aircraft | B738/M-SDE2E3FGHIRWXY/LB1 |
Departure
| Time | 2026-05-05 16:35 |
|---|---|
| Airport | Milan Malpensa International Airport (LIMC) |
Arrival
| Time | 2026-05-05 17:36 |
|---|---|
| Airport | Vienna International Airport (LOWW) |
| Time | Latitude | Longitude | Altitude | Speed | Heading |
|---|---|---|---|---|---|
| 2026-05-05 15:58 | 45.62222 | 8.71793 | 724 ft | 0 kts | 169° |
| 2026-05-05 16:19 | 45.62232 | 8.71790 | 734 ft | 3 kts | 169° |
| 2026-05-05 16:20 | 45.62271 | 8.71779 | 736 ft | 3 kts | 169° |
| 2026-05-05 16:20 | 45.62305 | 8.71763 | 734 ft | 3 kts | 133° |
| 2026-05-05 16:21 | 45.62312 | 8.71714 | 735 ft | 2 kts | 79° |
| 2026-05-05 16:22 | 45.62310 | 8.71698 | 733 ft | 0 kts | 79° |
| 2026-05-05 16:25 | 45.62310 | 8.71699 | 735 ft | 1 kts | 79° |
| 2026-05-05 16:25 | 45.62320 | 8.71780 | 735 ft | 4 kts | 80° |
| 2026-05-05 16:25 | 45.62325 | 8.71823 | 736 ft | 5 kts | 80° |
| 2026-05-05 16:26 | 45.62355 | 8.72045 | 735 ft | 15 kts | 78° |
| 2026-05-05 16:26 | 45.62232 | 8.72145 | 736 ft | 11 kts | 170° |
| 2026-05-05 16:27 | 45.62157 | 8.72167 | 736 ft | 11 kts | 169° |
| 2026-05-05 16:27 | 45.62076 | 8.72188 | 736 ft | 13 kts | 169° |
| 2026-05-05 16:27 | 45.61974 | 8.72218 | 734 ft | 17 kts | 169° |
| 2026-05-05 16:27 | 45.61848 | 8.72251 | 736 ft | 20 kts | 169° |
| 2026-05-05 16:28 | 45.61699 | 8.72293 | 736 ft | 23 kts | 169° |
| 2026-05-05 16:28 | 45.61535 | 8.72338 | 736 ft | 23 kts | 169° |
| 2026-05-05 16:28 | 45.61424 | 8.72362 | 736 ft | 13 kts | 189° |
| 2026-05-05 16:28 | 45.61382 | 8.72261 | 736 ft | 12 kts | 258° |
| 2026-05-05 16:29 | 45.61324 | 8.72197 | 736 ft | 12 kts | 169° |
| 2026-05-05 16:29 | 45.61228 | 8.72223 | 734 ft | 17 kts | 169° |
| 2026-05-05 16:29 | 45.61084 | 8.72262 | 734 ft | 25 kts | 169° |
| 2026-05-05 16:29 | 45.60894 | 8.72315 | 734 ft | 29 kts | 169° |
| 2026-05-05 16:30 | 45.60720 | 8.72363 | 736 ft | 20 kts | 169° |
| 2026-05-05 16:30 | 45.60638 | 8.72489 | 736 ft | 18 kts | 99° |
| 2026-05-05 16:30 | 45.60625 | 8.72663 | 736 ft | 18 kts | 95° |
| 2026-05-05 16:30 | 45.60612 | 8.72837 | 736 ft | 19 kts | 96° |
| 2026-05-05 16:31 | 45.60596 | 8.73051 | 734 ft | 23 kts | 96° |
| 2026-05-05 16:31 | 45.60606 | 8.73227 | 736 ft | 17 kts | 62° |
| 2026-05-05 16:31 | 45.60704 | 8.73310 | 736 ft | 16 kts | 22° |
| 2026-05-05 16:31 | 45.60813 | 8.73373 | 734 ft | 18 kts | 22° |
| 2026-05-05 16:32 | 45.60948 | 8.73393 | 736 ft | 22 kts | 349° |
| 2026-05-05 16:32 | 45.61113 | 8.73347 | 736 ft | 26 kts | 349° |
| 2026-05-05 16:32 | 45.61302 | 8.73294 | 736 ft | 29 kts | 349° |
| 2026-05-05 16:32 | 45.61490 | 8.73243 | 736 ft | 25 kts | 349° |
| 2026-05-05 16:33 | 45.61596 | 8.73222 | 736 ft | 10 kts | 18° |
| 2026-05-05 16:33 | 45.61622 | 8.73311 | 735 ft | 10 kts | 78° |
| 2026-05-05 16:33 | 45.61633 | 8.73407 | 736 ft | 10 kts | 90° |
| 2026-05-05 16:33 | 45.61599 | 8.73511 | 736 ft | 15 kts | 119° |
| 2026-05-05 16:34 | 45.61593 | 8.73673 | 736 ft | 16 kts | 73° |
| 2026-05-05 16:34 | 45.61665 | 8.73724 | 735 ft | 11 kts | 349° |
| 2026-05-05 16:34 | 45.61815 | 8.73683 | 736 ft | 50 kts | 349° |
| 2026-05-05 16:34 | 45.62393 | 8.73522 | 739 ft | 119 kts | 349° |
| 2026-05-05 16:35 | 45.63390 | 8.73250 | 852 ft | 163 kts | 348° |
| 2026-05-05 16:35 | 45.64515 | 8.72933 | 1616 ft | 163 kts | 348° |
| 2026-05-05 16:35 | 45.65668 | 8.72752 | 2314 ft | 171 kts | 8° |
| 2026-05-05 16:35 | 45.66766 | 8.73584 | 2669 ft | 200 kts | 51° |
| 2026-05-05 16:36 | 45.67397 | 8.75428 | 3115 ft | 213 kts | 69° |
| 2026-05-05 16:36 | 45.67739 | 8.77519 | 3627 ft | 224 kts | 89° |
| 2026-05-05 16:36 | 45.67698 | 8.79789 | 4230 ft | 232 kts | 93° |
| 2026-05-05 16:36 | 45.67628 | 8.82156 | 4782 ft | 249 kts | 94° |
| 2026-05-05 16:37 | 45.67555 | 8.84729 | 5253 ft | 265 kts | 93° |
| 2026-05-05 16:37 | 45.67489 | 8.87386 | 6063 ft | 268 kts | 93° |
| 2026-05-05 16:37 | 45.67428 | 8.90058 | 6898 ft | 272 kts | 93° |
| 2026-05-05 16:37 | 45.67372 | 8.92798 | 7637 ft | 279 kts | 93° |
| 2026-05-05 16:38 | 45.67318 | 8.95589 | 8473 ft | 282 kts | 94° |
| 2026-05-05 16:38 | 45.67266 | 8.98416 | 9329 ft | 288 kts | 94° |
| 2026-05-05 16:38 | 45.67214 | 9.01318 | 10107 ft | 295 kts | 94° |
| 2026-05-05 16:38 | 45.67160 | 9.04324 | 10458 ft | 314 kts | 94° |
| 2026-05-05 16:39 | 45.67103 | 9.07509 | 10861 ft | 332 kts | 94° |
| 2026-05-05 16:39 | 45.67044 | 9.10864 | 11520 ft | 340 kts | 94° |
| 2026-05-05 16:39 | 45.66987 | 9.14253 | 12324 ft | 343 kts | 94° |
| 2026-05-05 16:39 | 45.66928 | 9.17709 | 12979 ft | 351 kts | 94° |
| 2026-05-05 16:40 | 45.66867 | 9.21214 | 13712 ft | 356 kts | 94° |
| 2026-05-05 16:40 | 45.66804 | 9.24784 | 14383 ft | 362 kts | 94° |
| 2026-05-05 16:40 | 45.66739 | 9.28407 | 15198 ft | 366 kts | 94° |
| 2026-05-05 16:40 | 45.66672 | 9.32072 | 15929 ft | 370 kts | 94° |
| 2026-05-05 16:41 | 45.66603 | 9.35769 | 16650 ft | 375 kts | 94° |
| 2026-05-05 16:41 | 45.66531 | 9.39526 | 17370 ft | 380 kts | 94° |
| 2026-05-05 16:41 | 45.66457 | 9.43324 | 18083 ft | 385 kts | 94° |
| 2026-05-05 16:41 | 45.66381 | 9.47170 | 18737 ft | 389 kts | 94° |
| 2026-05-05 16:42 | 45.66303 | 9.51049 | 19376 ft | 392 kts | 94° |
| 2026-05-05 16:42 | 45.66223 | 9.54964 | 19884 ft | 395 kts | 94° |
| 2026-05-05 16:42 | 45.66142 | 9.58904 | 20501 ft | 399 kts | 94° |
| 2026-05-05 16:42 | 45.66058 | 9.62882 | 21107 ft | 403 kts | 94° |
| 2026-05-05 16:43 | 45.65972 | 9.66851 | 21699 ft | 406 kts | 94° |
| 2026-05-05 16:43 | 45.65884 | 9.70904 | 22310 ft | 409 kts | 94° |
| 2026-05-05 16:43 | 45.65794 | 9.74980 | 22893 ft | 413 kts | 94° |
| 2026-05-05 16:43 | 45.65701 | 9.79105 | 23475 ft | 417 kts | 94° |
| 2026-05-05 16:44 | 45.65606 | 9.83262 | 23957 ft | 420 kts | 94° |
| 2026-05-05 16:44 | 45.65508 | 9.87455 | 24453 ft | 423 kts | 94° |
| 2026-05-05 16:44 | 45.65409 | 9.91668 | 24956 ft | 425 kts | 94° |
| 2026-05-05 16:44 | 45.65308 | 9.95894 | 25423 ft | 428 kts | 94° |
| 2026-05-05 16:45 | 45.65205 | 10.00153 | 25885 ft | 430 kts | 94° |
| 2026-05-05 16:45 | 45.65099 | 10.04441 | 26344 ft | 433 kts | 94° |
| 2026-05-05 16:45 | 45.65220 | 10.08757 | 26752 ft | 439 kts | 82° |
| 2026-05-05 16:45 | 45.65998 | 10.12992 | 27196 ft | 443 kts | 70° |
| 2026-05-05 16:46 | 45.67386 | 10.16946 | 27657 ft | 446 kts | 56° |
| 2026-05-05 16:46 | 45.69183 | 10.20570 | 28101 ft | 448 kts | 53° |
| 2026-05-05 16:46 | 45.71028 | 10.24117 | 28475 ft | 452 kts | 53° |
| 2026-05-05 16:46 | 45.72935 | 10.27791 | 28878 ft | 455 kts | 54° |
| 2026-05-05 16:47 | 45.74778 | 10.31409 | 29309 ft | 456 kts | 54° |
| 2026-05-05 16:47 | 45.76625 | 10.35098 | 29821 ft | 456 kts | 55° |
| 2026-05-05 16:47 | 45.78459 | 10.38790 | 30334 ft | 454 kts | 55° |
| 2026-05-05 16:47 | 45.80256 | 10.42498 | 30760 ft | 453 kts | 58° |
| 2026-05-05 16:48 | 45.81762 | 10.46475 | 31131 ft | 453 kts | 65° |
| 2026-05-05 16:48 | 45.83111 | 10.50563 | 31540 ft | 453 kts | 66° |
| 2026-05-05 16:48 | 45.84420 | 10.54671 | 31936 ft | 453 kts | 66° |
| 2026-05-05 16:48 | 45.85719 | 10.58783 | 32332 ft | 453 kts | 66° |
| 2026-05-05 16:49 | 45.87022 | 10.62894 | 32777 ft | 452 kts | 66° |
| 2026-05-05 16:49 | 45.88332 | 10.66996 | 33164 ft | 452 kts | 66° |
| 2026-05-05 16:49 | 45.89648 | 10.71093 | 33513 ft | 452 kts | 65° |
| 2026-05-05 16:49 | 45.90968 | 10.75186 | 33898 ft | 452 kts | 65° |
| 2026-05-05 16:50 | 45.93620 | 10.83402 | 34012 ft | 453 kts | 65° |
| 2026-05-05 16:50 | 45.96257 | 10.91582 | 34005 ft | 449 kts | 65° |
| 2026-05-05 16:51 | 45.98874 | 10.99730 | 34012 ft | 449 kts | 65° |
| 2026-05-05 16:51 | 46.01481 | 11.07875 | 34003 ft | 448 kts | 65° |
| 2026-05-05 16:52 | 46.04078 | 11.16020 | 34023 ft | 448 kts | 65° |
| 2026-05-05 16:52 | 46.06672 | 11.24177 | 34020 ft | 448 kts | 65° |
| 2026-05-05 16:53 | 46.09241 | 11.32281 | 34025 ft | 447 kts | 65° |
| 2026-05-05 16:53 | 46.11819 | 11.40442 | 34009 ft | 447 kts | 65° |
| 2026-05-05 16:54 | 46.14390 | 11.48605 | 34004 ft | 446 kts | 65° |
| 2026-05-05 16:54 | 46.16953 | 11.56769 | 33992 ft | 446 kts | 66° |
| 2026-05-05 16:55 | 46.19078 | 11.63556 | 33984 ft | 446 kts | 66° |
| 2026-05-05 16:55 | 46.21626 | 11.71719 | 33994 ft | 445 kts | 66° |
| 2026-05-05 16:56 | 46.24161 | 11.79867 | 33984 ft | 444 kts | 66° |
| 2026-05-05 16:56 | 46.26687 | 11.88013 | 33983 ft | 444 kts | 66° |
| 2026-05-05 16:57 | 46.29201 | 11.96144 | 33978 ft | 442 kts | 66° |
| 2026-05-05 16:57 | 46.31682 | 12.04197 | 33986 ft | 441 kts | 66° |
| 2026-05-05 16:58 | 46.34177 | 12.12321 | 33977 ft | 441 kts | 67° |
| 2026-05-05 16:58 | 46.36655 | 12.20415 | 33990 ft | 440 kts | 67° |
| 2026-05-05 16:59 | 46.39131 | 12.28526 | 33981 ft | 440 kts | 67° |
| 2026-05-05 16:59 | 46.41592 | 12.36617 | 33993 ft | 439 kts | 67° |
| 2026-05-05 17:00 | 46.44047 | 12.44714 | 33995 ft | 438 kts | 67° |
| 2026-05-05 17:00 | 46.46495 | 12.52815 | 33989 ft | 438 kts | 67° |
| 2026-05-05 17:01 | 46.48938 | 12.60924 | 33981 ft | 438 kts | 67° |
| 2026-05-05 17:01 | 46.51370 | 12.69021 | 33989 ft | 437 kts | 67° |
| 2026-05-05 17:02 | 46.53779 | 12.77070 | 33989 ft | 437 kts | 68° |
| 2026-05-05 17:02 | 46.56196 | 12.85172 | 33982 ft | 436 kts | 68° |
| 2026-05-05 17:03 | 46.58603 | 12.93265 | 33976 ft | 436 kts | 68° |
| 2026-05-05 17:03 | 46.61005 | 13.01369 | 33976 ft | 437 kts | 68° |
| 2026-05-05 17:04 | 46.63403 | 13.09487 | 33965 ft | 437 kts | 68° |
| 2026-05-05 17:04 | 46.65795 | 13.17612 | 33977 ft | 437 kts | 68° |
| 2026-05-05 17:05 | 46.68190 | 13.25764 | 33965 ft | 439 kts | 67° |
| 2026-05-05 17:05 | 46.70880 | 13.33778 | 33960 ft | 442 kts | 63° |
| 2026-05-05 17:06 | 46.73770 | 13.41720 | 33967 ft | 445 kts | 63° |
| 2026-05-05 17:06 | 46.76653 | 13.49701 | 33948 ft | 444 kts | 63° |
| 2026-05-05 17:07 | 46.79450 | 13.57569 | 33939 ft | 436 kts | 63° |
| 2026-05-05 17:07 | 46.82224 | 13.65436 | 33944 ft | 436 kts | 63° |
| 2026-05-05 17:08 | 46.84989 | 13.73310 | 33934 ft | 436 kts | 63° |
| 2026-05-05 17:08 | 46.87753 | 13.81199 | 33934 ft | 436 kts | 63° |
| 2026-05-05 17:09 | 46.90513 | 13.89100 | 33924 ft | 435 kts | 63° |
| 2026-05-05 17:09 | 46.93262 | 13.96990 | 33913 ft | 435 kts | 63° |
| 2026-05-05 17:10 | 46.96005 | 14.04889 | 33919 ft | 435 kts | 63° |
| 2026-05-05 17:10 | 46.98722 | 14.12736 | 33904 ft | 435 kts | 63° |
| 2026-05-05 17:11 | 47.01448 | 14.20631 | 33907 ft | 435 kts | 63° |
| 2026-05-05 17:11 | 47.04163 | 14.28521 | 33897 ft | 432 kts | 63° |
| 2026-05-05 17:12 | 47.06869 | 14.36409 | 33792 ft | 438 kts | 63° |
| 2026-05-05 17:12 | 47.08245 | 14.40425 | 33544 ft | 439 kts | 63° |
| 2026-05-05 17:12 | 47.09605 | 14.44403 | 33202 ft | 434 kts | 63° |
| 2026-05-05 17:13 | 47.10944 | 14.48328 | 32855 ft | 428 kts | 63° |
| 2026-05-05 17:13 | 47.12027 | 14.52383 | 32437 ft | 425 kts | 75° |
| 2026-05-05 17:13 | 47.12742 | 14.56553 | 32100 ft | 420 kts | 77° |
| 2026-05-05 17:13 | 47.13387 | 14.60723 | 31697 ft | 417 kts | 77° |
| 2026-05-05 17:14 | 47.14035 | 14.64856 | 31332 ft | 413 kts | 77° |
| 2026-05-05 17:14 | 47.14707 | 14.68949 | 30965 ft | 411 kts | 76° |
| 2026-05-05 17:14 | 47.15395 | 14.73000 | 30604 ft | 408 kts | 76° |
| 2026-05-05 17:14 | 47.16086 | 14.77028 | 30249 ft | 405 kts | 76° |
| 2026-05-05 17:15 | 47.16772 | 14.81030 | 29879 ft | 403 kts | 76° |
| 2026-05-05 17:15 | 47.17450 | 14.85010 | 29494 ft | 400 kts | 76° |
| 2026-05-05 17:15 | 47.18111 | 14.88906 | 29123 ft | 396 kts | 76° |
| 2026-05-05 17:15 | 47.18774 | 14.92820 | 28740 ft | 392 kts | 76° |
| 2026-05-05 17:16 | 47.19427 | 14.96689 | 28368 ft | 389 kts | 76° |
| 2026-05-05 17:16 | 47.20075 | 15.00534 | 27990 ft | 386 kts | 76° |
| 2026-05-05 17:16 | 47.20719 | 15.04360 | 27617 ft | 383 kts | 76° |
| 2026-05-05 17:16 | 47.21355 | 15.08153 | 27246 ft | 380 kts | 76° |
| 2026-05-05 17:17 | 47.22102 | 15.11858 | 26854 ft | 378 kts | 64° |
| 2026-05-05 17:17 | 47.23540 | 15.15117 | 26063 ft | 385 kts | 47° |
| 2026-05-05 17:17 | 47.25582 | 15.17796 | 24828 ft | 403 kts | 34° |
| 2026-05-05 17:17 | 47.27929 | 15.20222 | 23743 ft | 420 kts | 33° |
| 2026-05-05 17:18 | 47.30371 | 15.22649 | 22951 ft | 424 kts | 33° |
| 2026-05-05 17:18 | 47.32815 | 15.25063 | 22341 ft | 421 kts | 33° |
| 2026-05-05 17:18 | 47.35232 | 15.27465 | 21725 ft | 419 kts | 33° |
| 2026-05-05 17:18 | 47.37637 | 15.29878 | 21131 ft | 416 kts | 33° |
| 2026-05-05 17:19 | 47.39986 | 15.32251 | 20640 ft | 412 kts | 33° |
| 2026-05-05 17:19 | 47.42333 | 15.34637 | 20157 ft | 408 kts | 34° |
| 2026-05-05 17:19 | 47.44648 | 15.37000 | 19753 ft | 402 kts | 34° |
| 2026-05-05 17:19 | 47.46945 | 15.39351 | 19138 ft | 402 kts | 34° |
| 2026-05-05 17:20 | 47.49241 | 15.41704 | 18649 ft | 400 kts | 34° |
| 2026-05-05 17:20 | 47.51511 | 15.44033 | 18227 ft | 395 kts | 34° |
| 2026-05-05 17:20 | 47.53760 | 15.46344 | 17882 ft | 390 kts | 34° |
| 2026-05-05 17:20 | 47.55971 | 15.48615 | 17515 ft | 385 kts | 34° |
| 2026-05-05 17:21 | 47.58177 | 15.50885 | 16894 ft | 387 kts | 34° |
| 2026-05-05 17:21 | 47.60387 | 15.53161 | 16309 ft | 387 kts | 34° |
| 2026-05-05 17:21 | 47.62602 | 15.55446 | 15711 ft | 388 kts | 34° |
| 2026-05-05 17:22 | 47.66998 | 15.59985 | 14722 ft | 383 kts | 34° |
| 2026-05-05 17:22 | 47.69166 | 15.62227 | 14468 ft | 373 kts | 34° |
| 2026-05-05 17:22 | 47.71252 | 15.64388 | 14034 ft | 361 kts | 34° |
| 2026-05-05 17:22 | 47.73314 | 15.66525 | 13216 ft | 361 kts | 34° |
| 2026-05-05 17:23 | 47.75371 | 15.68659 | 12554 ft | 357 kts | 34° |
| 2026-05-05 17:23 | 47.77360 | 15.70726 | 12315 ft | 341 kts | 34° |
| 2026-05-05 17:23 | 47.79238 | 15.72677 | 12027 ft | 327 kts | 34° |
| 2026-05-05 17:23 | 47.81068 | 15.74582 | 11755 ft | 316 kts | 34° |
| 2026-05-05 17:24 | 47.82844 | 15.76431 | 11484 ft | 308 kts | 33° |
| 2026-05-05 17:24 | 47.84587 | 15.78248 | 11259 ft | 304 kts | 34° |
| 2026-05-05 17:24 | 47.86307 | 15.80041 | 11026 ft | 300 kts | 34° |
| 2026-05-05 17:24 | 47.87998 | 15.81806 | 10806 ft | 295 kts | 34° |
| 2026-05-05 17:25 | 47.89679 | 15.83562 | 10524 ft | 294 kts | 34° |
| 2026-05-05 17:25 | 47.90790 | 15.84723 | 10329 ft | 294 kts | 34° |
| 2026-05-05 17:25 | 47.93025 | 15.87060 | 10060 ft | 290 kts | 34° |
| 2026-05-05 17:25 | 47.94668 | 15.88779 | 9803 ft | 289 kts | 35° |
| 2026-05-05 17:26 | 47.96316 | 15.90507 | 9508 ft | 289 kts | 34° |
| 2026-05-05 17:26 | 47.97960 | 15.92232 | 9195 ft | 288 kts | 34° |
| 2026-05-05 17:26 | 47.99597 | 15.93949 | 8908 ft | 287 kts | 34° |
| 2026-05-05 17:26 | 48.01229 | 15.95663 | 8597 ft | 286 kts | 34° |
| 2026-05-05 17:27 | 48.02848 | 15.97365 | 8320 ft | 284 kts | 34° |
| 2026-05-05 17:27 | 48.04459 | 15.99062 | 8034 ft | 283 kts | 34° |
| 2026-05-05 17:27 | 48.06072 | 16.00760 | 7730 ft | 283 kts | 35° |
| 2026-05-05 17:27 | 48.07681 | 16.02455 | 7444 ft | 283 kts | 34° |
| 2026-05-05 17:28 | 48.09278 | 16.04139 | 7272 ft | 278 kts | 34° |
| 2026-05-05 17:28 | 48.10841 | 16.05790 | 7135 ft | 272 kts | 34° |
| 2026-05-05 17:28 | 48.12368 | 16.07403 | 6912 ft | 267 kts | 34° |
| 2026-05-05 17:28 | 48.13883 | 16.09004 | 6471 ft | 267 kts | 34° |
| 2026-05-05 17:29 | 48.15407 | 16.10616 | 6027 ft | 267 kts | 34° |
| 2026-05-05 17:29 | 48.16881 | 16.12177 | 5898 ft | 251 kts | 35° |
| 2026-05-05 17:29 | 48.18262 | 16.13639 | 5684 ft | 237 kts | 35° |
| 2026-05-05 17:29 | 48.19615 | 16.15072 | 5252 ft | 240 kts | 35° |
| 2026-05-05 17:30 | 48.20969 | 16.16508 | 5026 ft | 239 kts | 36° |
| 2026-05-05 17:30 | 48.22097 | 16.18246 | 4935 ft | 229 kts | 69° |
| 2026-05-05 17:30 | 48.22255 | 16.20500 | 4974 ft | 218 kts | 107° |
| 2026-05-05 17:30 | 48.21847 | 16.22726 | 4893 ft | 223 kts | 111° |
| 2026-05-05 17:31 | 48.21375 | 16.24928 | 4645 ft | 220 kts | 114° |
| 2026-05-05 17:31 | 48.20828 | 16.27033 | 4353 ft | 214 kts | 119° |
| 2026-05-05 17:31 | 48.20211 | 16.29034 | 4071 ft | 210 kts | 122° |
| 2026-05-05 17:31 | 48.19577 | 16.30983 | 3785 ft | 205 kts | 123° |
| 2026-05-05 17:32 | 48.18957 | 16.32873 | 3510 ft | 198 kts | 122° |
| 2026-05-05 17:32 | 48.18368 | 16.34676 | 3255 ft | 188 kts | 122° |
| 2026-05-05 17:32 | 48.17802 | 16.36407 | 3015 ft | 180 kts | 123° |
| 2026-05-05 17:32 | 48.17271 | 16.38036 | 2792 ft | 168 kts | 122° |
| 2026-05-05 17:33 | 48.16772 | 16.39565 | 2552 ft | 157 kts | 123° |
| 2026-05-05 17:33 | 48.16319 | 16.40953 | 2372 ft | 145 kts | 125° |
| 2026-05-05 17:33 | 48.15887 | 16.42270 | 2188 ft | 140 kts | 125° |
| 2026-05-05 17:33 | 48.15456 | 16.43580 | 1972 ft | 140 kts | 124° |
| 2026-05-05 17:34 | 48.15030 | 16.44885 | 1788 ft | 139 kts | 124° |
| 2026-05-05 17:34 | 48.14607 | 16.46191 | 1622 ft | 141 kts | 123° |
| 2026-05-05 17:34 | 48.14177 | 16.47522 | 1463 ft | 142 kts | 122° |
| 2026-05-05 17:34 | 48.13742 | 16.48850 | 1233 ft | 141 kts | 122° |
| 2026-05-05 17:35 | 48.13317 | 16.50157 | 1064 ft | 139 kts | 123° |
| 2026-05-05 17:35 | 48.12901 | 16.51450 | 914 ft | 137 kts | 124° |
| 2026-05-05 17:35 | 48.12480 | 16.52727 | 729 ft | 136 kts | 123° |
| 2026-05-05 17:35 | 48.12072 | 16.53981 | 615 ft | 127 kts | 118° |
| 2026-05-05 17:36 | 48.11777 | 16.54885 | 611 ft | 67 kts | 115° |
| 2026-05-05 17:36 | 48.11623 | 16.55362 | 622 ft | 46 kts | 116° |
| 2026-05-05 17:36 | 48.11533 | 16.55645 | 611 ft | 23 kts | 111° |
| 2026-05-05 17:36 | 48.11500 | 16.55874 | 612 ft | 22 kts | 94° |
| 2026-05-05 17:37 | 48.11510 | 16.56079 | 609 ft | 16 kts | 80° |
| 2026-05-05 17:37 | 48.11555 | 16.56142 | 617 ft | 11 kts | 2° |
| 2026-05-05 17:37 | 48.11611 | 16.56037 | 616 ft | 10 kts | 297° |
| 2026-05-05 17:37 | 48.11653 | 16.55913 | 617 ft | 18 kts | 295° |
| 2026-05-05 17:38 | 48.11712 | 16.55731 | 611 ft | 20 kts | 296° |
| 2026-05-05 17:38 | 48.11772 | 16.55549 | 616 ft | 19 kts | 296° |
| 2026-05-05 17:38 | 48.11825 | 16.55385 | 616 ft | 16 kts | 295° |
| 2026-05-05 17:38 | 48.11873 | 16.55239 | 609 ft | 14 kts | 297° |
| 2026-05-05 17:39 | 48.11934 | 16.55181 | 609 ft | 9 kts | 3° |
| 2026-05-05 17:39 | 48.11993 | 16.55182 | 609 ft | 8 kts | 2° |
| 2026-05-05 17:39 | 48.12046 | 16.55210 | 617 ft | 8 kts | 26° |
| 2026-05-05 17:39 | 48.12079 | 16.55206 | 613 ft | 2 kts | 311° |
| 2026-05-05 17:40 | 48.12085 | 16.55187 | 612 ft | 2 kts | 297° |
| 2026-05-05 17:40 | 48.12091 | 16.55170 | 609 ft | 2 kts | 296° |
| 2026-05-05 17:40 | 48.12096 | 16.55154 | 619 ft | 2 kts | 296° |
| 2026-05-05 17:40 | 48.12096 | 16.55153 | 618 ft | 0 kts | 296° |